createdAt,value
2017-09-22T00:00:09.615Z,24.97
2017-09-22T00:02:44.299Z,24.77
2017-09-22T00:05:18.907Z,24.50
2017-09-22T00:07:53.331Z,23.70
2017-09-22T00:10:28.107Z,27.53
2017-09-22T00:13:02.619Z,28.47
2017-09-22T00:15:37.402Z,30.40
2017-09-22T00:18:12.071Z,25.87
2017-09-22T00:20:46.804Z,25.70
2017-09-22T00:23:21.403Z,24.90
2017-09-22T00:25:56.160Z,25.67
2017-09-22T00:28:30.899Z,25.37
2017-09-22T00:31:05.404Z,29.53
2017-09-22T00:33:40.479Z,30.13
2017-09-22T00:36:15.307Z,27.53
2017-09-22T00:38:49.535Z,26.23
2017-09-22T00:41:24.026Z,26.60
2017-09-22T00:43:59.275Z,27.40
2017-09-22T00:46:33.835Z,43.93
2017-09-22T00:49:08.959Z,29.43
2017-09-22T00:51:43.340Z,26.50
2017-09-22T00:54:18.312Z,28.80
2017-09-22T00:56:53.012Z,27.20
2017-09-22T00:59:27.842Z,25.43
2017-09-22T01:02:02.331Z,26.23
2017-09-22T01:04:37.214Z,28.00
2017-09-22T01:07:12.147Z,28.00
2017-09-22T01:09:46.907Z,26.63
2017-09-22T01:12:21.635Z,25.73
2017-09-22T01:14:56.487Z,26.30
2017-09-22T01:17:31.386Z,23.70
2017-09-22T01:20:06.077Z,26.40
2017-09-22T01:22:41.019Z,28.43
2017-09-22T01:25:15.775Z,27.17
2017-09-22T01:27:50.399Z,25.90
2017-09-22T01:30:25.049Z,26.90
2017-09-22T01:33:00.660Z,27.33
2017-09-22T01:35:35.287Z,24.87
2017-09-22T01:38:09.902Z,26.87
2017-09-22T01:40:44.450Z,27.80
2017-09-22T01:43:19.303Z,24.37
2017-09-22T01:45:53.983Z,29.90
2017-09-22T01:48:28.499Z,27.30
2017-09-22T01:51:03.263Z,27.30
2017-09-22T01:53:38.084Z,33.27
2017-09-22T01:56:12.833Z,28.37
2017-09-22T01:58:47.335Z,28.17
2017-09-22T02:01:22.302Z,30.80
2017-09-22T02:03:56.672Z,26.90
2017-09-22T02:06:31.708Z,30.93
2017-09-22T02:09:06.433Z,30.80
2017-09-22T02:11:41.318Z,26.73
2017-09-22T02:14:16.882Z,26.33
2017-09-22T02:16:51.700Z,26.80
2017-09-22T02:19:26.495Z,26.33
2017-09-22T02:22:01.127Z,24.53
2017-09-22T02:24:35.946Z,24.97
2017-09-22T02:27:10.755Z,24.03
2017-09-22T02:29:45.169Z,25.37
2017-09-22T02:32:20.067Z,25.77
2017-09-22T02:34:54.592Z,28.93
2017-09-22T02:37:29.296Z,28.00
2017-09-22T02:40:03.990Z,26.77
2017-09-22T02:42:39.545Z,30.30
2017-09-22T02:45:14.321Z,25.20
2017-09-22T02:47:49.009Z,28.97
2017-09-22T02:50:23.860Z,25.80
2017-09-22T02:52:58.375Z,26.70
2017-09-22T02:55:33.184Z,27.27
2017-09-22T02:58:07.606Z,27.27
2017-09-22T03:00:42.724Z,25.67
2017-09-22T03:03:17.386Z,27.33
2017-09-22T03:05:52.574Z,25.77
2017-09-22T03:08:27.379Z,29.67
2017-09-22T03:11:02.218Z,26.50
2017-09-22T03:13:37.019Z,26.63
2017-09-22T03:16:11.863Z,25.80
2017-09-22T03:18:46.620Z,24.57
2017-09-22T03:21:21.314Z,23.00
2017-09-22T03:23:56.022Z,22.80
2017-09-22T03:26:30.760Z,23.83
2017-09-22T03:29:06.011Z,23.93
2017-09-22T03:31:40.942Z,26.80
2017-09-22T03:34:15.847Z,23.17
2017-09-22T03:36:50.690Z,27.33
2017-09-22T03:39:25.430Z,26.17
2017-09-22T03:42:00.227Z,33.53
2017-09-22T03:44:35.028Z,28.70
2017-09-22T03:47:10.635Z,26.27
2017-09-22T03:49:45.173Z,26.60
2017-09-22T03:52:20.210Z,27.80
2017-09-22T03:54:54.991Z,31.30
2017-09-22T03:57:29.439Z,26.87
2017-09-22T04:00:03.882Z,28.53
2017-09-22T04:02:38.903Z,30.40
2017-09-22T04:05:13.563Z,25.93
2017-09-22T04:07:48.163Z,23.03
2017-09-22T04:10:22.914Z,24.23
2017-09-22T04:12:57.606Z,25.97
2017-09-22T04:15:32.545Z,23.93
2017-09-22T04:18:07.353Z,24.40
2017-09-22T04:20:42.318Z,25.73
2017-09-22T04:23:18.259Z,24.00
2017-09-22T04:25:54.330Z,23.33
2017-09-22T04:28:30.103Z,26.50
2017-09-22T04:31:05.157Z,22.47
2017-09-22T04:33:40.168Z,26.63
2017-09-22T04:36:15.018Z,27.00
2017-09-22T04:38:49.756Z,30.63
2017-09-22T04:41:24.579Z,24.70
2017-09-22T04:43:59.474Z,23.43
2017-09-22T04:46:34.296Z,23.70
2017-09-22T04:49:09.215Z,26.07
2017-09-22T04:51:44.175Z,26.60
2017-09-22T04:54:18.863Z,29.97
2017-09-22T04:56:53.446Z,26.73
2017-09-22T04:59:28.175Z,24.03
2017-09-22T05:02:02.878Z,24.47
2017-09-22T05:04:37.584Z,24.67
2017-09-22T05:07:12.257Z,24.03
2017-09-22T05:09:47.059Z,24.23
2017-09-22T05:12:21.700Z,28.20
2017-09-22T05:14:56.427Z,41.17
2017-09-22T05:17:31.143Z,28.20
2017-09-22T05:20:06.105Z,23.00
2017-09-22T05:22:40.774Z,18.43
2017-09-22T05:25:15.550Z,17.40
2017-09-22T05:27:50.286Z,16.83
2017-09-22T05:30:25.111Z,15.63
2017-09-22T05:32:59.854Z,18.70
2017-09-22T05:35:34.694Z,21.37
2017-09-22T05:38:09.526Z,17.73
2017-09-22T05:40:44.255Z,22.00
2017-09-22T05:43:19.020Z,21.17
2017-09-22T05:45:53.782Z,20.47
2017-09-22T05:48:29.047Z,20.73
2017-09-22T05:51:04.046Z,22.80
2017-09-22T05:53:38.694Z,23.00
2017-09-22T05:56:13.603Z,22.23
2017-09-22T05:58:48.330Z,23.70
2017-09-22T06:01:23.131Z,22.40
2017-09-22T06:03:57.736Z,22.33
2017-09-22T06:06:33.659Z,22.80
2017-09-22T06:09:07.969Z,21.93
2017-09-22T06:11:42.986Z,24.93
2017-09-22T06:14:17.487Z,24.77
2017-09-22T06:16:52.263Z,26.30
2017-09-22T06:19:26.955Z,25.20
2017-09-22T06:22:01.550Z,24.83
2017-09-22T06:24:36.155Z,24.17
2017-09-22T06:27:10.983Z,26.03
2017-09-22T06:29:45.843Z,25.40
2017-09-22T06:32:20.395Z,26.83
2017-09-22T06:34:55.068Z,25.87
2017-09-22T06:37:29.438Z,27.67
2017-09-22T06:40:04.154Z,26.47
2017-09-22T06:42:40.186Z,28.60
2017-09-22T06:45:14.803Z,30.93
2017-09-22T06:47:49.691Z,28.97
2017-09-22T06:50:24.314Z,27.73
2017-09-22T06:52:58.902Z,32.10
2017-09-22T06:55:33.520Z,28.17
2017-09-22T06:58:08.419Z,27.50
2017-09-22T07:00:42.969Z,27.27
2017-09-22T07:03:18.012Z,27.87
2017-09-22T07:05:52.836Z,29.33
2017-09-22T07:08:27.701Z,29.47
2017-09-22T07:11:02.612Z,28.10
2017-09-22T07:13:37.303Z,26.67
2017-09-22T07:16:11.991Z,26.17
2017-09-22T07:18:46.759Z,26.00
2017-09-22T07:21:21.277Z,27.97
2017-09-22T07:23:56.040Z,28.30
2017-09-22T07:26:30.777Z,28.00
2017-09-22T07:29:05.524Z,30.23
2017-09-22T07:31:40.444Z,27.67
2017-09-22T07:34:15.258Z,28.33
2017-09-22T07:36:50.673Z,30.13
2017-09-22T07:39:25.687Z,28.43
2017-09-22T07:42:00.399Z,27.30
2017-09-22T07:44:35.142Z,27.50
2017-09-22T07:47:09.939Z,30.53
2017-09-22T07:49:44.672Z,28.13
2017-09-22T07:52:19.395Z,30.10
2017-09-22T07:54:54.098Z,27.20
2017-09-22T07:57:29.098Z,31.70
2017-09-22T08:00:04.168Z,32.17
2017-09-22T08:02:39.335Z,27.57
2017-09-22T08:05:14.011Z,28.60
2017-09-22T08:07:48.926Z,27.67
2017-09-22T08:10:23.755Z,27.30
2017-09-22T08:12:58.414Z,32.00
2017-09-22T08:15:33.503Z,35.50
2017-09-22T08:18:08.636Z,29.57
2017-09-22T08:20:43.226Z,31.00
2017-09-22T08:23:17.962Z,35.90
2017-09-22T08:25:52.594Z,39.27
2017-09-22T08:28:27.316Z,33.77
2017-09-22T08:31:02.221Z,32.17
2017-09-22T08:33:37.009Z,34.50
2017-09-22T08:36:12.583Z,32.20
2017-09-22T08:38:47.308Z,32.70
2017-09-22T08:41:22.116Z,31.90
2017-09-22T08:43:56.729Z,32.27
2017-09-22T08:46:31.534Z,34.70
2017-09-22T08:49:07.125Z,33.43
2017-09-22T08:51:41.754Z,34.10
2017-09-22T08:54:16.331Z,31.33
2017-09-22T08:56:51.396Z,29.23
2017-09-22T08:59:26.026Z,32.90
2017-09-22T09:02:00.695Z,34.63
2017-09-22T09:04:35.543Z,34.33
2017-09-22T09:07:10.224Z,31.87
2017-09-22T09:09:45.765Z,31.70
2017-09-22T09:12:20.531Z,30.20
2017-09-22T09:14:55.291Z,31.87
2017-09-22T09:17:29.944Z,31.57
2017-09-22T09:20:04.663Z,31.17
2017-09-22T09:22:40.369Z,31.30
2017-09-22T09:25:15.224Z,31.77
2017-09-22T09:27:49.835Z,31.60
2017-09-22T09:30:24.651Z,31.47
2017-09-22T09:32:59.449Z,27.93
2017-09-22T09:35:34.273Z,31.90
2017-09-22T09:38:09.096Z,30.50
2017-09-22T09:40:43.838Z,31.30
2017-09-22T09:43:18.452Z,32.87
2017-09-22T09:45:53.105Z,29.83
2017-09-22T09:48:27.807Z,31.70
2017-09-22T09:51:02.404Z,33.70
2017-09-22T09:53:37.986Z,31.40
2017-09-22T09:56:12.716Z,30.23
2017-09-22T09:58:47.463Z,28.63
2017-09-22T10:01:23.181Z,33.17
2017-09-22T10:03:57.922Z,30.57
2017-09-22T10:06:33.547Z,23.77
2017-09-22T10:09:07.816Z,33.57
2017-09-22T10:11:42.731Z,28.83
2017-09-22T10:14:17.296Z,33.30
2017-09-22T10:16:51.817Z,26.43
2017-09-22T10:19:26.579Z,27.13
2017-09-22T10:22:01.728Z,27.13
2017-09-22T10:24:36.523Z,27.40
2017-09-22T10:27:11.156Z,28.13
2017-09-22T10:29:45.872Z,25.27
2017-09-22T10:32:20.582Z,26.47
2017-09-22T10:34:55.305Z,26.33
2017-09-22T10:37:30.899Z,24.50
2017-09-22T10:40:05.909Z,25.90
2017-09-22T10:42:40.703Z,25.20
2017-09-22T10:45:15.839Z,21.30
2017-09-22T10:47:50.609Z,27.47
2017-09-22T10:50:25.494Z,24.30
2017-09-22T10:53:00.090Z,26.53
2017-09-22T10:55:34.879Z,26.70
2017-09-22T10:58:09.796Z,28.30
2017-09-22T11:00:44.523Z,28.33
2017-09-22T11:03:19.352Z,25.93
2017-09-22T11:05:53.975Z,25.73
2017-09-22T11:08:28.855Z,26.10
2017-09-22T11:11:03.573Z,27.73
2017-09-22T11:13:38.419Z,24.70
2017-09-22T11:16:13.074Z,25.50
2017-09-22T11:18:47.795Z,24.87
2017-09-22T11:21:22.062Z,24.37
2017-09-22T11:23:56.866Z,23.00
2017-09-22T11:26:31.614Z,24.47
2017-09-22T11:29:06.422Z,22.10
2017-09-22T11:31:40.186Z,21.60
2017-09-22T11:34:14.363Z,21.30
2017-09-22T11:36:49.596Z,20.40
2017-09-22T11:39:25.147Z,19.90
2017-09-22T11:42:00.279Z,18.80
2017-09-22T11:44:35.099Z,19.10
2017-09-22T11:47:10.101Z,16.60
2017-09-22T11:49:44.919Z,14.60
2017-09-22T11:52:19.819Z,14.47
2017-09-22T11:54:54.657Z,16.90
2017-09-22T11:57:29.600Z,17.73
2017-09-22T12:00:04.308Z,14.60
2017-09-22T12:02:39.126Z,15.40
2017-09-22T12:05:13.856Z,12.90
2017-09-22T12:07:48.687Z,11.90
2017-09-22T12:10:23.594Z,14.77
2017-09-22T12:12:58.324Z,13.20
2017-09-22T12:15:33.099Z,12.13
2017-09-22T12:18:07.908Z,15.40
2017-09-22T12:20:42.736Z,13.23
2017-09-22T12:23:17.241Z,16.10
2017-09-22T12:25:52.363Z,15.30
2017-09-22T12:28:26.982Z,15.67
2017-09-22T12:31:01.685Z,14.47
2017-09-22T12:33:36.710Z,14.67
2017-09-22T12:36:11.731Z,12.67
2017-09-22T12:38:46.652Z,13.43
2017-09-22T12:41:21.483Z,14.47
2017-09-22T12:43:56.311Z,14.17
2017-09-22T12:46:31.372Z,15.33
2017-09-22T12:49:06.590Z,14.87
2017-09-22T12:51:40.931Z,15.70
2017-09-22T12:54:15.502Z,15.20
2017-09-22T12:56:50.607Z,12.53
2017-09-22T12:59:25.336Z,14.27
2017-09-22T13:02:00.047Z,12.50
2017-09-22T13:04:34.706Z,14.50
2017-09-22T13:07:10.132Z,14.00
2017-09-22T13:09:44.983Z,14.30
2017-09-22T13:12:19.840Z,12.97
2017-09-22T13:14:54.367Z,14.87
2017-09-22T13:17:29.167Z,12.77
2017-09-22T13:20:03.889Z,12.33
2017-09-22T13:22:38.737Z,11.23
2017-09-22T13:25:13.371Z,11.87
2017-09-22T13:27:48.187Z,11.63
2017-09-22T13:30:22.434Z,12.30
2017-09-22T13:32:57.533Z,9.87
2017-09-22T13:35:32.263Z,10.73
2017-09-22T13:38:08.247Z,11.90
2017-09-22T13:40:43.633Z,10.77
2017-09-22T13:43:18.207Z,11.70
2017-09-22T13:45:52.731Z,13.87
2017-09-22T13:48:27.471Z,12.70
2017-09-22T13:51:02.295Z,12.67
2017-09-22T13:53:36.799Z,11.50
2017-09-22T13:56:11.363Z,13.63
2017-09-22T13:58:46.187Z,12.47
2017-09-22T14:01:21.099Z,12.47
2017-09-22T14:03:55.689Z,10.87
2017-09-22T14:06:30.628Z,14.20
2017-09-22T14:09:04.906Z,11.20
2017-09-22T14:11:39.931Z,13.27
2017-09-22T14:14:14.838Z,12.77
2017-09-22T14:16:49.459Z,11.97
2017-09-22T14:19:24.067Z,11.27
2017-09-22T14:21:58.789Z,12.17
2017-09-22T14:24:33.670Z,15.63
2017-09-22T14:27:08.292Z,14.93
2017-09-22T14:29:43.091Z,12.97
2017-09-22T14:32:17.985Z,11.80
2017-09-22T14:34:52.713Z,12.23
2017-09-22T14:37:27.523Z,11.27
2017-09-22T14:40:02.234Z,11.50
2017-09-22T14:42:36.955Z,13.00
2017-09-22T14:45:12.139Z,11.03
2017-09-22T14:47:46.743Z,10.87
2017-09-22T14:50:21.519Z,10.00
2017-09-22T14:52:56.247Z,11.90
2017-09-22T14:55:31.070Z,11.50
2017-09-22T14:58:05.581Z,11.43
2017-09-22T15:00:40.526Z,11.90
2017-09-22T15:03:15.226Z,12.13
2017-09-22T15:05:50.173Z,9.70
2017-09-22T15:08:24.785Z,9.60
2017-09-22T15:10:59.279Z,10.10
2017-09-22T15:13:33.876Z,9.17
2017-09-22T15:16:08.576Z,10.73
2017-09-22T15:18:43.028Z,10.60
2017-09-22T15:21:18.043Z,10.30
2017-09-22T15:23:52.662Z,9.50
2017-09-22T15:26:27.358Z,9.63
2017-09-22T15:29:02.043Z,9.20
2017-09-22T15:31:36.970Z,10.00
2017-09-22T15:34:11.698Z,11.17
2017-09-22T15:36:46.483Z,9.60
2017-09-22T15:39:21.127Z,9.97
2017-09-22T15:41:55.744Z,10.17
2017-09-22T15:44:30.463Z,10.10
2017-09-22T15:47:05.072Z,9.80
2017-09-22T15:49:39.675Z,8.83
2017-09-22T15:52:14.405Z,9.80
2017-09-22T15:54:49.122Z,10.10
2017-09-22T15:57:23.947Z,12.30
2017-09-22T15:59:58.533Z,12.13
2017-09-22T16:02:33.410Z,10.40
2017-09-22T16:05:07.953Z,11.77
2017-09-22T16:07:42.771Z,8.47
2017-09-22T16:10:17.672Z,9.50
2017-09-22T16:12:52.211Z,11.00
2017-09-22T16:15:27.131Z,8.83
2017-09-22T16:18:01.747Z,14.43
2017-09-22T16:20:36.595Z,8.70
2017-09-22T16:23:11.427Z,10.67
2017-09-22T16:25:46.227Z,13.43
2017-09-22T16:28:22.204Z,14.37
2017-09-22T16:30:56.819Z,13.50
2017-09-22T16:33:31.731Z,10.90
2017-09-22T16:36:06.447Z,10.93
2017-09-22T16:38:41.091Z,9.70
2017-09-22T16:41:16.179Z,10.80
2017-09-22T16:43:50.787Z,10.90
2017-09-22T16:46:26.579Z,10.43
2017-09-22T16:49:01.258Z,10.00
2017-09-22T16:51:36.124Z,12.27
2017-09-22T16:54:11.168Z,10.70
2017-09-22T16:56:46.785Z,10.60
2017-09-22T16:59:21.505Z,10.00
2017-09-22T17:01:56.303Z,10.07
2017-09-22T17:04:31.316Z,11.33
2017-09-22T17:07:05.716Z,13.03
2017-09-22T17:09:40.503Z,13.20
2017-09-22T17:12:15.223Z,15.90
2017-09-22T17:14:50.055Z,16.60
2017-09-22T17:17:24.919Z,17.80
2017-09-22T17:19:59.578Z,16.43
2017-09-22T17:22:34.297Z,13.90
2017-09-22T17:25:10.089Z,18.73
2017-09-22T17:27:44.969Z,16.83
2017-09-22T17:30:19.999Z,19.00
2017-09-22T17:32:54.655Z,19.10
2017-09-22T17:35:29.697Z,17.53
2017-09-22T17:38:04.689Z,18.57
2017-09-22T17:40:39.244Z,20.47
2017-09-22T17:43:14.063Z,21.23
2017-09-22T17:45:48.924Z,26.73
2017-09-22T17:48:23.547Z,28.47
2017-09-22T17:50:58.417Z,25.63
2017-09-22T17:53:33.017Z,25.03
2017-09-22T17:56:08.660Z,30.20
2017-09-22T17:58:43.587Z,21.93
2017-09-22T18:01:18.447Z,20.50
2017-09-22T18:03:53.071Z,18.67
2017-09-22T18:06:27.703Z,19.77
2017-09-22T18:09:02.232Z,19.53
2017-09-22T18:11:37.239Z,19.90
2017-09-22T18:14:12.060Z,19.40
2017-09-22T18:16:46.384Z,18.90
2017-09-22T18:19:21.539Z,19.77
2017-09-22T18:21:56.118Z,19.37
2017-09-22T18:24:30.803Z,19.20
2017-09-22T18:27:06.053Z,18.63
2017-09-22T18:29:40.856Z,17.20
2017-09-22T18:32:15.782Z,17.60
2017-09-22T18:34:50.634Z,18.40
2017-09-22T18:37:25.638Z,17.97
2017-09-22T18:40:01.671Z,18.97
2017-09-22T18:42:36.130Z,18.17
2017-09-22T18:45:11.059Z,17.50
2017-09-22T18:47:45.960Z,19.87
2017-09-22T18:50:20.464Z,17.73
2017-09-22T18:52:55.296Z,18.80
2017-09-22T18:55:30.334Z,20.43
2017-09-22T18:58:05.132Z,21.87
2017-09-22T19:00:39.766Z,21.50
2017-09-22T19:03:14.436Z,19.97
2017-09-22T19:05:49.565Z,21.07
2017-09-22T19:08:24.294Z,21.27
2017-09-22T19:10:59.134Z,21.10
2017-09-22T19:13:33.747Z,24.13
2017-09-22T19:16:08.495Z,28.73
2017-09-22T19:18:43.346Z,24.00
2017-09-22T19:21:18.129Z,23.93
2017-09-22T19:23:52.747Z,24.23
2017-09-22T19:26:27.594Z,23.40
2017-09-22T19:29:02.118Z,22.10
2017-09-22T19:31:36.534Z,23.77
2017-09-22T19:34:11.339Z,22.70
2017-09-22T19:36:46.233Z,24.97
2017-09-22T19:39:20.603Z,21.90
2017-09-22T19:41:55.641Z,22.20
2017-09-22T19:44:30.309Z,27.37
2017-09-22T19:47:05.557Z,21.10
2017-09-22T19:49:40.962Z,21.20
2017-09-22T19:52:15.662Z,21.83
2017-09-22T19:54:50.395Z,27.47
2017-09-22T19:57:25.301Z,25.97
2017-09-22T19:59:59.946Z,21.50
2017-09-22T20:02:34.945Z,22.80
2017-09-22T20:05:09.309Z,23.47
2017-09-22T20:07:44.311Z,26.67
2017-09-22T20:10:19.223Z,25.27
2017-09-22T20:12:53.827Z,23.47
2017-09-22T20:15:28.170Z,24.03
2017-09-22T20:18:02.993Z,22.30
2017-09-22T20:20:37.687Z,25.83
2017-09-22T20:23:12.487Z,23.93
2017-09-22T20:25:47.162Z,23.53
2017-09-22T20:28:21.772Z,23.40
2017-09-22T20:30:57.138Z,24.77
2017-09-22T20:33:32.056Z,25.80
2017-09-22T20:36:06.579Z,26.97
2017-09-22T20:38:41.127Z,24.30
2017-09-22T20:41:15.810Z,24.60
2017-09-22T20:43:50.314Z,24.57
2017-09-22T20:46:25.056Z,24.40
2017-09-22T20:49:00.649Z,22.10
2017-09-22T20:51:35.494Z,22.90
2017-09-22T20:54:11.527Z,22.93
2017-09-22T20:56:46.260Z,22.10
2017-09-22T20:59:21.067Z,22.57
2017-09-22T21:01:55.112Z,20.90
2017-09-22T21:04:31.146Z,21.20
2017-09-22T21:07:05.903Z,20.33
2017-09-22T21:09:40.509Z,20.63
2017-09-22T21:12:15.258Z,19.77
2017-09-22T21:14:50.307Z,21.97
2017-09-22T21:17:25.118Z,20.73
2017-09-22T21:20:00.039Z,21.37
2017-09-22T21:22:34.990Z,20.77
2017-09-22T21:25:09.770Z,21.33
2017-09-22T21:27:44.410Z,21.93
2017-09-22T21:30:19.253Z,23.73
2017-09-22T21:32:53.911Z,21.70
2017-09-22T21:35:28.828Z,20.80
2017-09-22T21:38:03.791Z,20.53
2017-09-22T21:40:38.610Z,20.37
2017-09-22T21:43:13.371Z,20.03
2017-09-22T21:45:48.002Z,19.47
2017-09-22T21:48:22.827Z,19.30
2017-09-22T21:50:57.523Z,20.40
2017-09-22T21:53:32.358Z,19.80
2017-09-22T21:56:07.174Z,19.37
2017-09-22T21:58:41.807Z,21.07
2017-09-22T22:01:16.438Z,19.57
2017-09-22T22:03:56.313Z,19.97
2017-09-22T22:06:36.185Z,19.27
2017-09-22T22:09:11.295Z,19.37
2017-09-22T22:11:46.131Z,18.93
2017-09-22T22:14:20.899Z,19.20
2017-09-22T22:16:55.578Z,18.50
2017-09-22T22:19:30.390Z,18.67
2017-09-22T22:22:05.267Z,17.93
2017-09-22T22:24:40.875Z,18.97
2017-09-22T22:27:15.583Z,19.27
2017-09-22T22:29:50.195Z,21.30
2017-09-22T22:32:25.052Z,19.00
2017-09-22T22:35:00.815Z,18.80
2017-09-22T22:37:35.062Z,19.77
2017-09-22T22:40:11.184Z,19.73
2017-09-22T22:42:45.897Z,20.20
2017-09-22T22:45:20.846Z,18.90
2017-09-22T22:47:55.651Z,19.50
2017-09-22T22:50:30.367Z,21.60
2017-09-22T22:53:05.291Z,21.63
2017-09-22T22:55:40.147Z,22.83
2017-09-22T22:58:14.944Z,22.37
2017-09-22T23:00:49.751Z,20.60
2017-09-22T23:03:24.474Z,20.33
2017-09-22T23:05:59.239Z,21.47
2017-09-22T23:08:33.855Z,21.10
2017-09-22T23:11:08.498Z,20.00
2017-09-22T23:13:44.216Z,21.23
2017-09-22T23:16:19.023Z,20.33
2017-09-22T23:18:53.795Z,25.60
2017-09-22T23:21:28.406Z,23.80
2017-09-22T23:24:03.209Z,23.50
2017-09-22T23:26:38.059Z,23.70
2017-09-22T23:29:12.779Z,24.63
2017-09-22T23:31:48.394Z,23.13
2017-09-22T23:34:22.955Z,22.80
2017-09-22T23:36:57.668Z,23.13
2017-09-22T23:39:32.400Z,26.93
2017-09-22T23:42:07.011Z,25.47
2017-09-22T23:44:41.683Z,24.50
2017-09-22T23:47:16.258Z,25.73
2017-09-22T23:49:51.839Z,26.17
2017-09-22T23:52:26.547Z,26.03
2017-09-22T23:55:01.495Z,27.60
2017-09-22T23:57:36.180Z,25.43
